Time;durP1;ratioP1;P1;durP2;ratioP2;P2;SDS_P1;SDS_P2;PMS_P1;PMS_P2;Temp;Humidity;BMP_temperature;BMP_pressure;BME280_temperature;BME280_humidity;BME280_pressure;Samples;Min_cycle;Max_cycle;Signal;HPM_P1;HPM_P2
2021/12/25 00:00:16;;;;;;;18.73;3.88;;;1.40;99.90;;;;;;5128845;28;20395;-72
2021/12/25 00:02:42;;;;;;;10.70;2.05;;;1.30;99.90;;;;;;5113190;28;20128;-72
2021/12/25 00:05:10;;;;;;;9.63;2.97;;;1.30;99.90;;;;;;5128963;28;20048;-73
2021/12/25 00:07:35;;;;;;;9.98;2.00;;;1.30;99.90;;;;;;5093897;28;20108;-73
2021/12/25 00:10:03;;;;;;;10.40;2.13;;;1.30;99.90;;;;;;5094517;28;20056;-72
2021/12/25 00:12:29;;;;;;;;;;;1.20;99.90;;;;;;5112011;28;20401;-73
2021/12/25 00:14:54;;;;;;;10.80;2.65;;;1.20;99.90;;;;;;5128169;28;20047;-73
2021/12/25 00:17:20;;;;;;;11.18;1.88;;;1.20;99.90;;;;;;5096414;28;20039;-72
2021/12/25 00:19:46;;;;;;;12.20;2.42;;;1.00;99.90;;;;;;5117602;28;20054;-74
2021/12/25 00:22:12;;;;;;;12.02;2.47;;;1.10;99.90;;;;;;5116578;28;20559;-74
2021/12/25 00:24:42;;;;;;;13.77;2.65;;;1.10;99.90;;;;;;5081747;28;20055;-74
2021/12/25 00:35:04;;;;;;;9.38;1.73;;;1.00;99.90;;;;;;5116841;28;20394;-72
2021/12/25 00:37:30;;;;;;;8.45;1.70;;;0.90;99.90;;;;;;5097925;28;20040;-72
2021/12/25 00:39:56;;;;;;;14.95;1.85;;;0.80;99.90;;;;;;5116707;28;20055;-72
2021/12/25 00:42:22;;;;;;;8.73;1.75;;;0.90;99.90;;;;;;5116726;28;20044;-72
2021/12/25 00:44:49;;;;;;;7.40;0.68;;;0.90;99.90;;;;;;5117440;28;20196;-73
2021/12/25 00:47:15;;;;;;;9.35;2.40;;;0.90;99.90;;;;;;5121146;28;20048;-73
2021/12/25 00:49:41;;;;;;;7.97;1.48;;;0.80;99.90;;;;;;5117450;28;20112;-72
2021/12/25 00:52:06;;;;;;;7.55;1.17;;;0.70;99.90;;;;;;5116051;28;20112;-73
2021/12/25 00:54:33;;;;;;;7.50;1.45;;;0.70;99.90;;;;;;5097087;28;20060;-73
2021/12/25 00:56:58;;;;;;;9.85;2.05;;;0.60;99.90;;;;;;5115468;28;20134;-73
2021/12/25 00:59:24;;;;;;;12.68;2.20;;;0.60;99.90;;;;;;5079982;28;20086;-72
2021/12/25 01:01:50;;;;;;;9.48;1.77;;;0.60;99.90;;;;;;5115173;28;20047;-73
2021/12/25 01:04:15;;;;;;;8.02;1.55;;;0.60;99.90;;;;;;5080211;28;20135;-72
2021/12/25 01:06:41;;;;;;;12.70;2.13;;;0.50;99.90;;;;;;5115439;28;20035;-73
2021/12/25 01:09:07;;;;;;;8.95;1.40;;;0.50;99.90;;;;;;5097345;28;20096;-72
2021/12/25 01:11:35;;;;;;;5.07;1.05;;;0.50;99.90;;;;;;5115267;28;20090;-73
2021/12/25 01:14:18;;;;;;;6.35;1.83;;;0.50;99.90;;;;;;5097240;28;20044;-72
2021/12/25 01:32:40;;;;;;;8.75;1.65;;;0.20;99.90;;;;;;5096645;28;20063;-73
2021/12/25 01:35:37;;;;;;;4.50;0.70;;;0.00;99.90;;;;;;5115308;28;20104;-72
2021/12/25 01:38:21;;;;;;;10.60;1.50;;;-0.10;99.90;;;;;;5102279;28;20040;-73
2021/12/25 01:40:58;;;;;;;6.93;1.15;;;-0.20;99.90;;;;;;5131025;27;20054;-72
2021/12/25 01:48:53;;;;;;;6.57;1.70;;;-0.20;99.90;;;;;;5114822;28;20059;-72
2021/12/25 01:51:19;;;;;;;4.50;0.65;;;-0.30;99.90;;;;;;5079629;28;20153;-72
2021/12/25 01:53:45;;;;;;;4.95;1.25;;;-0.20;99.90;;;;;;5114166;28;20059;-72
2021/12/25 01:56:12;;;;;;;12.85;1.60;;;-0.30;99.90;;;;;;5096578;28;20052;-72
2021/12/25 01:58:38;;;;;;;5.95;0.77;;;-0.40;99.90;;;;;;5114477;28;20075;-73
2021/12/25 02:01:06;;;;;;;3.97;1.10;;;-0.40;99.90;;;;;;5096526;28;20086;-74
2021/12/25 02:03:36;;;;;;;4.95;0.73;;;-0.50;99.90;;;;;;5131134;27;20087;-73
2021/12/25 02:06:03;;;;;;;9.00;0.90;;;-0.50;99.90;;;;;;5114074;28;20054;-72
2021/12/25 02:08:29;;;;;;;4.07;0.60;;;-0.60;99.90;;;;;;5130538;27;20453;-72
2021/12/25 02:10:56;;;;;;;7.50;0.90;;;-0.50;99.90;;;;;;5113324;28;20043;-72
2021/12/25 02:13:22;;;;;;;3.83;0.60;;;-0.60;99.90;;;;;;5079557;28;20442;-73
2021/12/25 02:15:51;;;;;;;4.93;1.00;;;-0.60;99.90;;;;;;5113994;28;20542;-73
2021/12/25 02:19:08;;;;;;;4.07;0.70;;;-0.80;99.90;;;;;;5114360;28;20128;-72
2021/12/25 02:21:17;;;;;;;7.20;0.82;;;-0.80;99.90;;;;;;5099755;28;20120;-72
2021/12/25 02:23:43;;;;;;;4.88;0.43;;;-0.80;99.90;;;;;;5114321;28;20518;-73
2021/12/25 02:26:09;;;;;;;5.15;0.70;;;-0.70;99.90;;;;;;5079560;28;20047;-72
2021/12/25 02:28:34;;;;;;;4.60;0.38;;;-0.70;99.90;;;;;;5079336;28;20040;-72
2021/12/25 02:31:05;;;;;;;2.47;0.60;;;-0.70;99.90;;;;;;5096121;28;20043;-73
2021/12/25 02:33:31;;;;;;;2.58;0.40;;;-0.80;99.90;;;;;;5096964;28;20047;-73
2021/12/25 02:35:57;;;;;;;3.60;0.35;;;-0.80;99.90;;;;;;5079580;28;20055;-73
2021/12/25 02:38:25;;;;;;;6.53;0.63;;;-0.80;99.90;;;;;;5114281;28;20122;-73
2021/12/25 02:40:51;;;;;;;7.65;1.40;;;-0.90;99.90;;;;;;5116407;28;20056;-72
2021/12/25 02:43:17;;;;;;;4.63;0.82;;;-1.00;99.90;;;;;;5080000;28;20048;-73
2021/12/25 02:45:43;;;;;;;2.33;0.50;;;-0.90;99.90;;;;;;5096772;28;20146;-74
2021/12/25 02:48:11;;;;;;;2.92;0.60;;;-1.00;99.90;;;;;;5096509;28;20472;-73
2021/12/25 02:50:39;;;;;;;5.07;0.65;;;-1.00;99.90;;;;;;5114018;28;20075;-72
2021/12/25 02:53:07;;;;;;;6.57;0.60;;;-1.10;99.90;;;;;;5130030;27;20434;-74
2021/12/25 02:55:35;;;;;;;4.43;0.70;;;-1.20;99.90;;;;;;5073783;28;20090;-73
2021/12/25 02:58:01;;;;;;;2.38;0.40;;;-1.20;99.90;;;;;;5095461;28;20036;-73
2021/12/25 03:00:30;;;;;;;7.22;0.57;;;-1.20;99.90;;;;;;5091950;28;20496;-74
2021/12/25 03:02:57;;;;;;;3.10;0.50;;;-1.20;99.90;;;;;;5093629;28;20077;-73
2021/12/25 03:05:24;;;;;;;2.38;0.40;;;-1.30;99.90;;;;;;5092647;28;20044;-74
2021/12/25 03:07:50;;;;;;;4.25;0.30;;;-1.20;99.90;;;;;;5092731;28;20464;-75
2021/12/25 03:10:18;;;;;;;1.80;0.30;;;-1.30;99.90;;;;;;5092585;28;20051;-74
2021/12/25 03:12:50;;;;;;;;;;;-1.40;99.90;;;;;;5075342;28;20127;-76
2021/12/25 03:15:26;;;;;;;14.73;0.45;;;-1.40;99.90;;;;;;5092594;28;20411;-75
2021/12/25 03:17:53;;;;;;;4.60;0.45;;;-1.40;99.90;;;;;;5074971;28;20507;-74
2021/12/25 03:20:19;;;;;;;3.08;0.50;;;-1.50;99.90;;;;;;5091551;28;20495;-73
2021/12/25 03:22:45;;;;;;;3.33;0.30;;;-1.50;99.90;;;;;;5074973;28;20327;-77
2021/12/25 03:25:14;;;;;;;3.25;0.47;;;-1.50;99.90;;;;;;5075395;28;20047;-75
2021/12/25 03:27:41;;;;;;;2.80;0.32;;;-1.30;99.90;;;;;;5074705;28;20054;-74
2021/12/25 03:30:08;;;;;;;;;;;-1.10;99.90;;;;;;5074687;28;20448;-75
2021/12/25 03:32:34;;;;;;;3.72;0.65;;;-1.30;99.90;;;;;;5091791;28;19919;-74
2021/12/25 03:35:00;;;;;;;3.03;0.30;;;-1.40;99.90;;;;;;5092761;28;20391;-74
2021/12/25 03:37:26;;;;;;;2.70;0.30;;;-1.50;99.90;;;;;;5076133;28;20040;-75
2021/12/25 03:39:52;;;;;;;1.58;0.30;;;-1.60;99.90;;;;;;5058941;28;20055;-76
2021/12/25 03:42:18;;;;;;;2.15;0.20;;;-1.80;99.90;;;;;;5093093;28;20051;-76
2021/12/25 03:44:44;;;;;;;1.08;0.32;;;-1.80;99.90;;;;;;5093515;28;20051;-78
2021/12/25 03:47:22;;;;;;;1.30;0.30;;;-1.90;99.90;;;;;;5091435;28;20051;-75
2021/12/25 03:58:06;;;;;;;2.55;0.40;;;-2.00;99.90;;;;;;5098987;28;20120;-77
2021/12/25 04:00:33;;;;;;;3.55;0.40;;;-2.00;99.90;;;;;;5081482;28;20113;-77
2021/12/25 04:03:04;;;;;;;6.78;0.60;;;-2.10;99.90;;;;;;5064871;28;20138;-75
2021/12/25 04:05:33;;;;;;;4.28;0.45;;;-2.10;99.90;;;;;;5097652;28;20060;-75
2021/12/25 04:08:07;;;;;;;5.82;0.22;;;-2.20;99.90;;;;;;5099031;28;20490;-76
2021/12/25 04:10:39;;;;;;;2.03;0.60;;;-2.10;99.90;;;;;;5082136;28;20048;-76
2021/12/25 04:13:09;;;;;;;3.33;0.30;;;-2.20;99.90;;;;;;5098795;28;20123;-79
2021/12/25 04:15:35;;;;;;;4.13;0.40;;;-2.30;99.90;;;;;;5081224;28;20044;-75
2021/12/25 04:18:01;;;;;;;2.17;0.40;;;-2.30;99.90;;;;;;5098360;28;20074;-76
2021/12/25 04:20:27;;;;;;;1.48;0.40;;;-2.40;99.90;;;;;;5098985;28;20083;-79
2021/12/25 04:23:06;;;;;;;1.15;0.30;;;-2.40;99.90;;;;;;5098828;28;20169;-76
2021/12/25 04:25:34;;;;;;;4.57;0.30;;;-2.40;99.90;;;;;;5083042;28;20040;-78
2021/12/25 04:28:10;;;;;;;3.13;0.22;;;-2.50;99.90;;;;;;5064282;28;20100;-76
2021/12/25 04:30:57;;;;;;;0.63;0.10;;;-2.50;99.90;;;;;;5099615;28;20048;-76
2021/12/25 04:50:11;;;;;;;3.00;0.10;;;-2.70;99.90;;;;;;5098812;28;20048;-75
2021/12/25 05:03:47;;;;;;;3.83;0.30;;;-2.90;99.90;;;;;;5116907;28;20047;-75
2021/12/25 05:06:13;;;;;;;3.20;0.30;;;-2.80;99.90;;;;;;5114706;27;20047;-76
2021/12/25 05:08:39;;;;;;;1.92;0.25;;;-2.90;99.90;;;;;;5114185;28;20046;-76
2021/12/25 05:11:04;;;;;;;1.20;0.20;;;-2.80;99.90;;;;;;5064139;28;20051;-76
2021/12/25 05:13:32;;;;;;;5.32;0.30;;;-2.80;99.90;;;;;;5097451;28;20137;-75
2021/12/25 05:15:58;;;;;;;;;;;-2.90;99.90;;;;;;5081133;28;20043;-81
2021/12/25 05:18:24;;;;;;;1.15;0.17;;;-2.90;99.90;;;;;;5131368;27;20398;-76
2021/12/25 05:20:49;;;;;;;0.73;0.20;;;-2.90;99.90;;;;;;5115648;28;20047;-75
2021/12/25 05:23:15;;;;;;;5.53;1.40;;;-2.90;99.90;;;;;;5114537;27;20128;-76
2021/12/25 05:25:41;;;;;;;4.32;0.50;;;-2.90;99.90;;;;;;5097766;28;20071;-76
2021/12/25 05:28:07;;;;;;;6.30;0.45;;;-2.90;99.90;;;;;;5131486;27;20395;-77
2021/12/25 05:30:33;;;;;;;1.77;0.30;;;-2.90;99.90;;;;;;5115000;28;20044;-76
2021/12/25 05:32:59;;;;;;;2.25;0.63;;;-2.90;99.90;;;;;;5080616;28;20047;-79
2021/12/25 05:35:24;;;;;;;1.20;0.10;;;-3.00;99.90;;;;;;5097120;28;20048;-77
2021/12/25 05:37:57;;;;;;;3.78;0.50;;;-2.90;99.90;;;;;;5096854;28;20094;-77
2021/12/25 05:40:24;;;;;;;2.45;0.52;;;-3.00;99.90;;;;;;5131913;27;20052;-74
2021/12/25 05:42:50;;;;;;;3.05;0.25;;;-3.00;99.90;;;;;;5115709;28;20052;-76
2021/12/25 05:45:16;;;;;;;1.05;0.22;;;-3.00;99.90;;;;;;5096777;28;20131;-76
2021/12/25 05:47:42;;;;;;;1.27;0.30;;;-3.00;99.90;;;;;;5063631;28;20465;-76
2021/12/25 05:50:08;;;;;;;1.42;0.22;;;-3.00;99.90;;;;;;5114056;28;20048;-77
2021/12/25 05:52:34;;;;;;;1.67;0.30;;;-2.90;99.90;;;;;;5115018;28;20055;-76
2021/12/25 05:55:00;;;;;;;1.58;0.30;;;-2.90;99.90;;;;;;5118409;28;20052;-83
2021/12/25 05:57:25;;;;;;;1.73;0.30;;;-3.00;99.90;;;;;;5098841;28;20055;-77
2021/12/25 05:59:51;;;;;;;1.88;0.30;;;-2.90;99.90;;;;;;5096805;28;20500;-78
2021/12/25 06:02:17;;;;;;;0.90;0.20;;;-2.90;99.90;;;;;;5080776;28;20054;-78
2021/12/25 06:04:43;;;;;;;1.90;0.30;;;-2.90;99.90;;;;;;5097448;28;20067;-79
2021/12/25 06:07:08;;;;;;;1.77;0.20;;;-3.00;99.90;;;;;;5096861;28;20132;-77
2021/12/25 06:09:34;;;;;;;1.88;0.25;;;-3.00;99.90;;;;;;5081552;28;20047;-77
2021/12/25 06:12:00;;;;;;;2.05;0.30;;;-3.10;99.90;;;;;;5086718;28;20036;-78
2021/12/25 06:14:26;;;;;;;5.22;0.40;;;-3.10;99.90;;;;;;5080948;28;20131;-77
2021/12/25 06:16:52;;;;;;;3.40;0.55;;;-3.10;99.90;;;;;;5097090;28;20079;-76
2021/12/25 06:19:18;;;;;;;1.67;0.22;;;-3.20;99.90;;;;;;5096420;28;20105;-76
2021/12/25 06:21:44;;;;;;;4.10;0.20;;;-3.20;99.90;;;;;;5079932;28;20044;-76
2021/12/25 06:24:10;;;;;;;1.35;0.30;;;-3.20;99.90;;;;;;5096601;28;20047;-76
2021/12/25 06:26:38;;;;;;;1.85;0.20;;;-3.20;99.90;;;;;;5131716;27;20172;-74
2021/12/25 06:29:05;;;;;;;1.45;0.20;;;-3.20;99.90;;;;;;5083499;28;20068;-79
2021/12/25 06:31:31;;;;;;;0.85;0.25;;;-3.20;99.90;;;;;;5118959;28;20138;-76
2021/12/25 06:33:58;;;;;;;0.97;0.10;;;-3.30;99.90;;;;;;5103995;28;20035;-76
2021/12/25 06:36:24;;;;;;;1.35;0.20;;;-3.30;99.90;;;;;;5102966;28;20047;-75
2021/12/25 06:38:50;;;;;;;0.55;0.10;;;-3.30;99.90;;;;;;5102904;28;20127;-75
2021/12/25 06:41:16;;;;;;;1.08;0.20;;;-3.30;99.90;;;;;;5119062;28;20484;-77
2021/12/25 06:43:42;;;;;;;3.90;0.60;;;-3.30;99.90;;;;;;5116342;28;20130;-76
2021/12/25 06:46:08;;;;;;;3.90;0.20;;;-3.30;99.90;;;;;;5115755;28;20048;-78
2021/12/25 06:48:34;;;;;;;1.17;0.10;;;-3.40;99.90;;;;;;5097088;28;20040;-77
2021/12/25 06:51:00;;;;;;;0.85;0.20;;;-3.30;99.90;;;;;;5096662;28;20046;-75
2021/12/25 06:53:26;;;;;;;0.50;0.10;;;-3.40;99.90;;;;;;5081101;28;20486;-77
2021/12/25 06:55:52;;;;;;;0.55;0.10;;;-3.40;99.90;;;;;;5079740;28;20135;-75
2021/12/25 06:58:17;;;;;;;0.93;0.25;;;-3.40;99.90;;;;;;5132154;27;20352;-75
2021/12/25 07:00:43;;;;;;;0.25;0.10;;;-3.40;99.90;;;;;;5081395;28;20113;-75
2021/12/25 07:03:10;;;;;;;0.38;0.10;;;-3.40;99.90;;;;;;5131803;27;20064;-78
2021/12/25 07:05:35;;;;;;;1.48;0.20;;;-3.50;99.90;;;;;;5133095;27;20280;-74
2021/12/25 07:08:01;;;;;;;1.52;0.20;;;-3.50;99.90;;;;;;5116680;28;20155;-75
2021/12/25 07:10:27;;;;;;;0.28;0.10;;;-3.50;99.90;;;;;;5116082;28;20102;-74
2021/12/25 07:12:54;;;;;;;3.03;0.20;;;-3.40;99.90;;;;;;5097747;28;20082;-75
2021/12/25 07:15:20;;;;;;;0.52;0.20;;;-3.40;99.90;;;;;;5097100;28;20395;-75
2021/12/25 07:17:46;;;;;;;1.50;0.40;;;-3.50;99.90;;;;;;5095967;28;20062;-75
2021/12/25 07:20:12;;;;;;;3.40;0.20;;;-3.40;99.90;;;;;;5114942;28;20043;-76
2021/12/25 07:22:38;;;;;;;3.25;0.30;;;-3.40;99.90;;;;;;5080234;28;20054;-75
2021/12/25 07:25:06;;;;;;;3.38;0.25;;;-3.50;99.90;;;;;;5063593;28;20484;-76
2021/12/25 07:27:32;;;;;;;1.08;0.20;;;-3.50;99.90;;;;;;5114413;28;20095;-76
2021/12/25 07:29:58;;;;;;;4.05;0.60;;;-3.50;99.90;;;;;;5113960;28;20181;-75
2021/12/25 07:32:24;;;;;;;1.45;0.15;;;-3.60;99.90;;;;;;5096370;28;20047;-75
2021/12/25 07:34:51;;;;;;;0.93;0.20;;;-3.60;99.90;;;;;;5095294;28;20047;-77
2021/12/25 07:37:18;;;;;;;0.57;0.10;;;-3.70;99.90;;;;;;5078847;28;20432;-78
2021/12/25 07:39:45;;;;;;;4.20;0.55;;;-3.70;99.90;;;;;;5113184;28;20130;-77
2021/12/25 07:42:12;;;;;;;0.53;0.30;;;-3.70;99.90;;;;;;5078179;28;20051;-77
2021/12/25 07:44:38;;;;;;;4.97;0.20;;;-3.80;99.90;;;;;;5113781;28;20277;-76
2021/12/25 07:47:09;;;;;;;0.20;0.10;;;-3.70;99.90;;;;;;5078962;28;20524;-77
2021/12/25 07:49:35;;;;;;;0.95;0.10;;;-3.70;99.90;;;;;;5129280;27;20067;-75
2021/12/25 07:52:01;;;;;;;0.57;0.10;;;-3.70;99.90;;;;;;5112925;28;20047;-77
2021/12/25 07:54:26;;;;;;;1.55;0.30;;;-3.80;99.90;;;;;;5094415;28;20047;-75
2021/12/25 07:56:52;;;;;;;0.73;0.13;;;-3.70;99.90;;;;;;5112619;28;20132;-75
2021/12/25 07:59:19;;;;;;;0.32;0.17;;;-3.60;99.90;;;;;;5094223;28;20126;-74
2021/12/25 08:01:45;;;;;;;;;;;-3.70;99.90;;;;;;5113005;28;20051;-77
2021/12/25 08:04:11;;;;;;;0.85;0.10;;;-3.70;99.90;;;;;;5113003;28;20356;-75
2021/12/25 08:06:39;;;;;;;2.95;0.10;;;-3.70;99.90;;;;;;5077905;28;20117;-76
2021/12/25 08:09:05;;;;;;;0.28;0.10;;;-3.70;99.90;;;;;;5128287;28;20268;-75
2021/12/25 08:11:31;;;;;;;1.38;0.20;;;-3.70;99.90;;;;;;5095152;28;20063;-76
2021/12/25 08:13:58;;;;;;;5.47;0.20;;;-3.70;99.90;;;;;;5094546;28;20057;-75
2021/12/25 08:16:24;;;;;;;0.30;0.10;;;-3.70;99.90;;;;;;5112774;28;20447;-75
2021/12/25 08:18:49;;;;;;;2.10;0.40;;;-3.70;99.90;;;;;;5078151;28;20079;-75
2021/12/25 08:21:16;;;;;;;0.47;0.10;;;-3.70;99.90;;;;;;5077367;28;20043;-77
2021/12/25 08:23:41;;;;;;;2.60;0.32;;;-3.70;99.90;;;;;;5113875;28;20079;-77
2021/12/25 08:26:08;;;;;;;0.60;0.10;;;-3.60;99.90;;;;;;5129166;28;20089;-76
2021/12/25 08:28:34;;;;;;;1.08;0.30;;;-3.60;99.90;;;;;;5111242;28;20047;-75
2021/12/25 08:31:02;;;;;;;5.10;0.30;;;-3.60;99.90;;;;;;5093470;28;20108;-76
2021/12/25 08:33:28;;;;;;;1.15;0.20;;;-3.60;99.90;;;;;;5112448;28;20046;-76
2021/12/25 08:35:54;;;;;;;5.40;0.40;;;-3.60;99.90;;;;;;5077151;28;20048;-75
2021/12/25 08:38:20;;;;;;;2.53;0.30;;;-3.70;99.90;;;;;;5112381;28;20127;-76
2021/12/25 08:40:46;;;;;;;7.43;0.82;;;-3.70;99.90;;;;;;5117130;28;20126;-75
2021/12/25 08:43:15;;;;;;;3.00;0.37;;;-3.70;99.90;;;;;;5116431;28;20484;-76
2021/12/25 08:45:44;;;;;;;3.90;0.47;;;-3.70;99.90;;;;;;5098929;28;20495;-76
2021/12/25 08:48:20;;;;;;;0.85;0.20;;;-3.70;99.90;;;;;;5119452;28;20044;-77
2021/12/25 08:50:56;;;;;;;1.42;0.45;;;-3.80;99.90;;;;;;5101180;28;20060;-77
2021/12/25 08:53:24;;;;;;;3.72;0.40;;;-3.80;99.90;;;;;;5101664;28;20044;-76
2021/12/25 08:55:54;;;;;;;0.63;0.10;;;-3.60;99.90;;;;;;5114609;28;20123;-77
2021/12/25 08:58:21;;;;;;;0.73;0.20;;;-3.60;99.90;;;;;;5064195;28;20384;-79
2021/12/25 09:00:50;;;;;;;;;;;-3.60;99.90;;;;;;5097900;28;20040;-77
2021/12/25 09:03:16;;;;;;;1.75;0.20;;;-3.60;99.90;;;;;;5097133;28;19920;-77
2021/12/25 09:05:43;;;;;;;0.38;0.10;;;-3.60;99.90;;;;;;5097628;28;20083;-77
2021/12/25 09:08:10;;;;;;;3.50;0.30;;;-3.60;99.90;;;;;;5098774;28;20127;-80
2021/12/25 09:10:36;;;;;;;1.27;0.30;;;-3.60;99.90;;;;;;5080013;28;20070;-78
2021/12/25 09:13:02;;;;;;;0.63;0.17;;;-3.60;99.90;;;;;;5097056;28;20052;-77
2021/12/25 09:15:28;;;;;;;1.15;0.10;;;-3.60;99.90;;;;;;5080173;28;20113;-76
2021/12/25 09:17:54;;;;;;;2.50;0.40;;;-3.50;99.90;;;;;;5063262;28;20047;-76
2021/12/25 09:20:22;;;;;;;0.98;0.20;;;-3.50;99.90;;;;;;5081685;28;20047;-78
2021/12/25 09:22:49;;;;;;;1.30;0.20;;;-3.50;99.90;;;;;;5081558;28;20055;-77
2021/12/25 09:25:20;;;;;;;4.20;0.40;;;-3.40;99.90;;;;;;5098394;28;20193;-78
2021/12/25 09:27:46;;;;;;;1.83;0.28;;;-3.40;99.90;;;;;;5063884;28;20306;-78
2021/12/25 09:30:12;;;;;;;4.18;0.40;;;-3.40;99.90;;;;;;5097991;28;20475;-76
2021/12/25 09:32:39;;;;;;;1.02;0.20;;;-3.30;99.90;;;;;;5095691;28;20084;-77
2021/12/25 09:35:05;;;;;;;1.55;0.20;;;-3.30;99.90;;;;;;5094983;28;20055;-76
2021/12/25 09:37:31;;;;;;;2.70;0.38;;;-3.30;99.90;;;;;;5096808;28;20044;-77
2021/12/25 09:39:58;;;;;;;1.77;0.30;;;-3.30;99.90;;;;;;5079464;28;20108;-77
2021/12/25 09:42:25;;;;;;;1.00;0.28;;;-3.20;99.90;;;;;;5077805;28;20080;-80
2021/12/25 09:44:55;;;;;;;2.63;0.60;;;-3.10;99.90;;;;;;5094094;28;20123;-75
2021/12/25 09:47:22;;;;;;;1.77;0.30;;;-3.10;99.90;;;;;;5093272;28;20200;-75
2021/12/25 09:49:48;;;;;;;3.03;0.25;;;-3.10;99.90;;;;;;5076172;28;20048;-75
2021/12/25 09:52:14;;;;;;;2.95;0.40;;;-3.10;99.90;;;;;;5077137;28;20159;-76
2021/12/25 09:54:40;;;;;;;1.83;0.28;;;-3.20;99.90;;;;;;5093263;28;20505;-76
2021/12/25 09:57:08;;;;;;;1.13;0.20;;;-3.20;99.90;;;;;;5073985;28;20059;-78
2021/12/25 09:59:33;;;;;;;2.87;0.40;;;-3.10;99.90;;;;;;5093540;28;20056;-77
2021/12/25 10:02:01;;;;;;;3.53;0.30;;;-3.10;99.90;;;;;;5076845;28;20405;-76
2021/12/25 10:04:37;;;;;;;2.00;0.20;;;-3.10;99.90;;;;;;5093738;28;20040;-80
2021/12/25 10:07:15;;;;;;;0.93;0.10;;;-3.00;99.90;;;;;;5076819;28;20048;-77
2021/12/25 10:09:41;;;;;;;1.17;0.10;;;-3.00;99.90;;;;;;5093893;28;20082;-76
2021/12/25 10:12:13;;;;;;;6.45;0.35;;;-2.90;99.90;;;;;;5075969;28;20055;-75
2021/12/25 10:14:42;;;;;;;1.35;0.20;;;-2.80;99.90;;;;;;5094504;28;20044;-78
2021/12/25 10:17:21;;;;;;;2.25;0.45;;;-2.70;99.90;;;;;;5093525;28;20047;-76
2021/12/25 10:20:03;;;;;;;2.05;0.20;;;-2.70;99.90;;;;;;5093874;28;20047;-77
2021/12/25 10:22:29;;;;;;;3.03;0.30;;;-2.60;99.90;;;;;;5093472;28;20040;-80
2021/12/25 10:25:11;;;;;;;1.77;0.40;;;-2.60;99.90;;;;;;5094168;28;20058;-77
2021/12/25 10:27:48;;;;;;;1.83;0.20;;;-2.50;99.90;;;;;;5092980;28;20127;-78
2021/12/25 10:30:15;;;;;;;1.85;0.20;;;-2.40;99.90;;;;;;5075751;28;20074;-76
2021/12/25 10:32:40;;;;;;;3.30;0.40;;;-2.30;99.90;;;;;;5075634;28;20044;-76
2021/12/25 10:35:14;;;;;;;2.55;0.20;;;-2.30;99.90;;;;;;5092415;28;20070;-76
2021/12/25 10:37:41;;;;;;;6.25;0.30;;;-2.30;99.90;;;;;;5092571;28;20437;-77
2021/12/25 10:40:31;;;;;;;0.70;0.20;;;-2.30;99.90;;;;;;5092336;28;20442;-77
2021/12/25 10:43:00;;;;;;;3.20;0.30;;;-2.20;99.90;;;;;;5075705;28;20464;-76
2021/12/25 10:45:28;;;;;;;6.85;0.95;;;-2.20;99.90;;;;;;5075279;28;20443;-76
2021/12/25 10:48:09;;;;;;;1.70;0.20;;;-2.20;99.90;;;;;;5092435;28;20464;-77
2021/12/25 10:50:41;;;;;;;1.25;0.28;;;-2.20;99.90;;;;;;5092745;28;20087;-77
2021/12/25 10:53:27;;;;;;;6.13;0.52;;;-2.20;99.90;;;;;;5093873;28;20357;-77
2021/12/25 10:56:03;;;;;;;0.80;0.20;;;-2.10;99.90;;;;;;5099838;28;20048;-78
2021/12/25 10:58:32;;;;;;;1.92;0.40;;;-2.10;99.90;;;;;;5113623;28;20055;-76
2021/12/25 11:00:58;;;;;;;3.42;0.22;;;-2.10;99.90;;;;;;5095112;28;20490;-79
2021/12/25 11:03:33;;;;;;;2.67;0.30;;;-2.00;99.90;;;;;;5078026;28;20506;-78
2021/12/25 11:06:16;;;;;;;1.33;0.10;;;-2.00;99.90;;;;;;5112308;28;20281;-77
2021/12/25 11:08:44;;;;;;;1.40;0.25;;;-1.90;99.90;;;;;;5114344;28;20071;-76
2021/12/25 11:11:15;;;;;;;;;;;-1.90;99.90;;;;;;5097344;28;20052;-77
2021/12/25 11:13:44;;;;;;;3.13;0.35;;;-1.90;99.90;;;;;;5097331;28;19927;-79
2021/12/25 11:16:15;;;;;;;1.05;0.30;;;-1.80;99.90;;;;;;5130890;27;20047;-78
2021/12/25 11:19:16;;;;;;;2.30;0.20;;;-1.80;99.90;;;;;;5129840;27;20039;-74
2021/12/25 11:21:46;;;;;;;1.35;0.20;;;-1.80;99.90;;;;;;5113064;28;20093;-76
2021/12/25 11:24:17;;;;;;;2.72;0.10;;;-1.80;99.90;;;;;;5114426;28;20054;-76
2021/12/25 11:26:45;;;;;;;2.70;0.40;;;-1.70;99.90;;;;;;5113599;28;20055;-76
2021/12/25 11:29:14;;;;;;;3.60;0.57;;;-1.70;99.90;;;;;;5094722;28;20036;-75
2021/12/25 11:31:42;;;;;;;0.85;0.10;;;-1.80;99.90;;;;;;5130216;27;20052;-77
2021/12/25 11:34:08;;;;;;;1.05;0.40;;;-1.70;99.90;;;;;;5111939;28;20434;-76
2021/12/25 11:36:43;;;;;;;3.27;0.60;;;-1.70;99.90;;;;;;5094823;28;20132;-76
2021/12/25 11:39:09;;;;;;;7.15;0.40;;;-1.70;99.90;;;;;;5130028;27;20191;-77
2021/12/25 11:41:37;;;;;;;2.60;0.30;;;-1.60;99.90;;;;;;5079451;28;20087;-78
2021/12/25 11:44:06;;;;;;;1.33;0.73;;;-1.60;99.90;;;;;;5112357;28;20055;-77
2021/12/25 11:46:41;;;;;;;3.35;0.28;;;-1.60;99.90;;;;;;5096272;28;20055;-74
2021/12/25 11:49:15;;;;;;;9.32;0.30;;;-1.60;99.90;;;;;;5113314;28;20043;-76
2021/12/25 11:51:44;;;;;;;1.98;0.30;;;-1.50;99.90;;;;;;5095826;28;20104;-77
2021/12/25 11:58:37;;;;;;;1.15;0.13;;;-1.30;99.90;;;;;;5073303;28;20064;-76
2021/12/25 12:00:44;;;;;;;1.38;0.30;;;-1.40;99.90;;;;;;5075816;28;20228;-75
2021/12/25 12:03:35;;;;;;;1.38;0.10;;;-1.40;99.90;;;;;;5093497;28;20055;-77
2021/12/25 12:06:02;;;;;;;5.22;0.40;;;-1.40;99.90;;;;;;5093736;28;20052;-76
2021/12/25 12:08:28;;;;;;;1.33;0.40;;;-1.40;99.90;;;;;;5096925;28;20040;-75
2021/12/25 12:10:57;;;;;;;4.68;0.52;;;-1.40;99.90;;;;;;5080090;28;20085;-77
2021/12/25 12:13:28;;;;;;;2.40;0.50;;;-1.40;99.90;;;;;;5098896;28;20040;-76
2021/12/25 12:16:00;;;;;;;3.05;0.50;;;-1.40;99.90;;;;;;5082921;28;20040;-78
2021/12/25 12:21:08;;;;;;;4.25;0.60;;;-1.30;99.90;;;;;;5106912;28;20048;-76
2021/12/25 12:26:51;;;;;;;4.07;0.40;;;-1.30;99.90;;;;;;5108499;28;20059;-76
2021/12/25 12:29:38;;;;;;;2.00;0.30;;;-1.20;99.90;;;;;;5110505;28;20044;-76
2021/12/25 12:32:20;;;;;;;2.78;0.40;;;-1.30;99.90;;;;;;5090156;28;20122;-76
2021/12/25 12:34:47;;;;;;;2.25;0.43;;;-1.20;99.90;;;;;;5105337;28;20048;-76
2021/12/25 12:37:16;;;;;;;2.78;0.40;;;-1.30;99.90;;;;;;5105176;28;20096;-76
2021/12/25 12:39:55;;;;;;;2.33;0.40;;;-1.30;99.90;;;;;;5103971;28;20040;-79
2021/12/25 12:42:43;;;;;;;1.77;0.40;;;-1.30;99.90;;;;;;5087041;28;20047;-77
2021/12/25 12:45:32;;;;;;;4.28;0.55;;;-1.30;99.90;;;;;;5102106;28;20048;-74
2021/12/25 12:48:07;;;;;;;2.22;0.50;;;-1.30;99.90;;;;;;5099338;28;20131;-76
2021/12/25 12:50:34;;;;;;;2.13;0.40;;;-1.40;99.90;;;;;;5099771;28;20055;-77
2021/12/25 12:53:09;;;;;;;2.15;0.15;;;-1.40;99.90;;;;;;5099333;28;20055;-77
2021/12/25 12:55:44;;;;;;;2.63;0.52;;;-1.30;99.90;;;;;;5098058;28;20102;-78
2021/12/25 12:58:26;;;;;;;4.35;0.35;;;-1.30;99.90;;;;;;5111360;28;20059;-75
2021/12/25 13:01:00;;;;;;;4.35;0.40;;;-1.30;99.90;;;;;;5117900;28;20067;-80
2021/12/25 13:03:29;;;;;;;2.75;0.40;;;-1.20;99.90;;;;;;5118658;28;20070;-76
2021/12/25 13:06:03;;;;;;;4.03;0.30;;;-1.30;99.90;;;;;;5099706;28;20055;-76
2021/12/25 13:08:32;;;;;;;2.85;0.30;;;-1.20;99.90;;;;;;5118296;28;20084;-76
2021/12/25 13:11:09;;;;;;;1.50;0.40;;;-1.20;99.90;;;;;;5117288;28;20047;-77
2021/12/25 13:13:39;;;;;;;;;;;-1.30;99.90;;;;;;5067133;28;20046;-76
2021/12/25 13:16:14;;;;;;;1.10;0.20;;;-1.20;99.90;;;;;;5132607;27;19923;-75
2021/12/25 13:18:44;;;;;;;2.92;0.38;;;-1.20;99.90;;;;;;5099088;28;20125;-76
2021/12/25 13:21:16;;;;;;;2.55;0.25;;;-1.20;99.90;;;;;;5133933;27;20051;-76
2021/12/25 13:23:49;;;;;;;1.63;0.35;;;-1.20;99.90;;;;;;5116526;28;20471;-76
2021/12/25 13:26:34;;;;;;;2.47;0.40;;;-1.20;99.90;;;;;;5114094;28;20047;-76
2021/12/25 13:29:12;;;;;;;0.95;0.40;;;-1.30;99.90;;;;;;5117743;28;20100;-74
2021/12/25 13:31:41;;;;;;;1.63;0.47;;;-1.30;99.90;;;;;;5098329;28;20040;-75
2021/12/25 13:34:15;;;;;;;2.60;0.32;;;-1.30;99.90;;;;;;5114911;27;20062;-76
2021/12/25 13:36:45;;;;;;;1.13;0.30;;;-1.30;99.90;;;;;;5097896;28;20047;-77
2021/12/25 13:39:24;;;;;;;3.65;0.50;;;-1.30;99.90;;;;;;5080352;28;20047;-76
2021/12/25 13:41:54;;;;;;;6.03;0.40;;;-1.30;99.90;;;;;;5115849;28;20040;-78
2021/12/25 13:44:26;;;;;;;6.95;2.10;;;-1.40;99.90;;;;;;5115519;28;20058;-74
2021/12/25 13:46:57;;;;;;;3.50;0.40;;;-1.40;99.90;;;;;;5131287;27;20042;-76
2021/12/25 13:49:25;;;;;;;4.07;0.57;;;-1.40;99.90;;;;;;5115342;28;20063;-75
2021/12/25 13:51:52;;;;;;;3.40;0.50;;;-1.30;99.90;;;;;;5115866;28;20054;-79
2021/12/25 13:54:22;;;;;;;4.80;0.60;;;-1.40;99.90;;;;;;5116542;28;20043;-77
2021/12/25 13:56:50;;;;;;;2.00;0.60;;;-1.40;99.90;;;;;;5115657;28;20063;-74
2021/12/25 13:59:17;;;;;;;1.90;0.40;;;-1.40;99.90;;;;;;5080952;28;20058;-75
2021/12/25 14:01:42;;;;;;;5.00;0.70;;;-1.40;99.90;;;;;;5113974;28;20077;-76
2021/12/25 14:04:10;;;;;;;4.43;0.80;;;-1.50;99.90;;;;;;5080218;28;20138;-76
2021/12/25 14:06:37;;;;;;;2.70;0.52;;;-1.60;99.90;;;;;;5096777;28;20078;-75
2021/12/25 14:09:04;;;;;;;6.18;1.13;;;-1.40;99.90;;;;;;5096349;28;20476;-76
2021/12/25 14:11:30;;;;;;;1.92;0.40;;;-1.30;99.90;;;;;;5115501;28;20125;-75
2021/12/25 14:13:56;;;;;;;2.88;0.40;;;-1.70;99.90;;;;;;5131761;27;20043;-74